Time;durP1;ratioP1;P1;durP2;ratioP2;P2;SDS_P1;SDS_P2;PMS_P1;PMS_P2;Temp;Humidity;BMP_temperature;BMP_pressure;BME280_temperature;BME280_humidity;BME280_pressure;Samples;Min_cycle;Max_cycle;Signal;HPM_P1;HPM_P2
2023/09/21 00:01:43;;;;;;;;;;;;;;;;;;6182752;23;19912;-93
2023/09/21 00:04:09;;;;;;;;;;;;;;;;;;6157091;23;19971;-93
2023/09/21 00:06:36;;;;;;;;;;;;;;;;;;6155689;23;20305;-94
2023/09/21 00:09:05;;;;;;;;;;;;;;;;;;6156942;23;20319;-92
2023/09/21 00:11:31;;;;;;;;;;;;;;;;;;6156087;23;19975;-93
2023/09/21 00:13:57;;;;;;;;;;;;;;;;;;6154483;23;20617;-93
2023/09/21 00:16:25;;;;;;;;;;;;;;;;;;6155706;23;20334;-93
2023/09/21 00:18:51;;;;;;;;;;;;;;;;;;6178707;23;19904;-89
2023/09/21 00:21:17;;;;;;;;;;;;;;;;;;6153069;23;20250;-90
2023/09/21 00:23:44;;;;;;;;;;;;;;;;;;6157694;22;20430;-89
2023/09/21 00:26:10;;;;;;;;;;;;;;;;;;6157547;23;20242;-90
2023/09/21 00:28:36;;;;;;;;;;;;;;;;;;6154896;23;19987;-90
2023/09/21 00:31:02;;;;;;;;;;;;;;;;;;6153356;23;20335;-89
2023/09/21 00:33:28;;;;;;;;;;;;;;;;;;6154170;23;19905;-89
2023/09/21 00:35:54;;;;;;;;;;;;;;;;;;6178536;23;19987;-89
2023/09/21 00:38:20;;;;;;;;;;;;;;;;;;6153212;23;19996;-89
2023/09/21 00:40:47;;;;;;;;;;;;;;;;;;6154532;23;19928;-89
2023/09/21 00:43:13;;;;;;;;;;;;;;;;;;6155551;23;19986;-89
2023/09/21 00:45:40;;;;;;;;;;;;;;;;;;6154078;23;20330;-89
2023/09/21 00:48:09;;;;;;;;;;;;;;;;;;6153810;23;20346;-89
2023/09/21 00:50:35;;;;;;;;;;;;;;;;;;6153594;23;19991;-89
2023/09/21 00:53:01;;;;;;;;;;;;;;;;;;6154909;23;19943;-89
2023/09/21 00:55:30;;;;;;;;;;;;;;;;;;6156144;23;19904;-89
2023/09/21 00:57:57;;;;;;;;;;;;;;;;;;6157100;23;19963;-92
2023/09/21 01:00:25;;;;;;;;;;;;;;;;;;6158470;23;20372;-91
2023/09/21 01:02:51;;;;;;;;;;;;;;;;;;6160767;23;19948;-92
2023/09/21 01:05:18;;;;;;;;;;;;;;;;;;6158450;23;20326;-92
2023/09/21 01:07:44;;;;;;;;;;;;;;;;;;6158324;23;19966;-90
2023/09/21 01:10:11;;;;;;;;;;;;;;;;;;6158233;23;19912;-93
2023/09/21 01:12:37;;;;;;;;;;;;;;;;;;6154925;23;19904;-93
2023/09/21 01:15:04;;;;;;;;;;;;;;;;;;6181442;23;20551;-92
2023/09/21 01:17:30;;;;;;;;;;;;;;;;;;6156747;23;20246;-94
2023/09/21 01:19:57;;;;;;;;;;;;;;;;;;6157130;23;19915;-91
2023/09/21 01:22:23;;;;;;;;;;;;;;;;;;6155787;23;19943;-94
2023/09/21 01:24:49;;;;;;;;;;;;;;;;;;6162022;23;19916;-91
2023/09/21 01:27:17;;;;;;;;;;;;;;;;;;6156327;23;20543;-89
2023/09/21 01:29:43;;;;;;;;;;;;;;;;;;6156051;23;20507;-89
2023/09/21 01:32:09;;;;;;;;;;;;;;;;;;6155700;23;19981;-89
2023/09/21 01:34:35;;;;;;;;;;;;;;;;;;6154543;23;19908;-89
2023/09/21 01:37:01;;;;;;;;;;;;;;;;;;6156276;23;20243;-89
2023/09/21 01:39:27;;;;;;;;;;;;;;;;;;6155999;23;19928;-89
2023/09/21 01:41:53;;;;;;;;;;;;;;;;;;6155863;23;20227;-89
2023/09/21 01:44:21;;;;;;;;;;;;;;;;;;6153784;23;19915;-89
2023/09/21 01:46:48;;;;;;;;;;;;;;;;;;6154972;23;19904;-89
2023/09/21 01:49:14;;;;;;;;;;;;;;;;;;6155202;23;19935;-90
2023/09/21 01:51:40;;;;;;;;;;;;;;;;;;6181289;23;19920;-89
2023/09/21 01:54:07;;;;;;;;;;;;;;;;;;6154692;23;19924;-89
2023/09/21 01:56:33;;;;;;;;;;;;;;;;;;6154812;23;19908;-89
2023/09/21 01:59:00;;;;;;;;;;;;;;;;;;6153441;23;19931;-90
2023/09/21 02:01:26;;;;;;;;;;;;;;;;;;6155463;23;19990;-89
2023/09/21 02:03:56;;;;;;;;;;;;;;;;;;6155545;23;19912;-89
2023/09/21 02:06:22;;;;;;;;;;;;;;;;;;6156744;23;20051;-89
2023/09/21 02:08:49;;;;;;;;;;;;;;;;;;6155707;23;19963;-89
2023/09/21 02:11:15;;;;;;;;;;;;;;;;;;6153448;23;19904;-89
2023/09/21 02:13:40;;;;;;;;;;;;;;;;;;6152422;23;19943;-89
2023/09/21 02:16:07;;;;;;;;;;;;;;;;;;6179492;23;20267;-88
2023/09/21 02:18:34;;;;;;;;;;;;;;;;;;6153645;23;19915;-88
2023/09/21 02:20:59;;;;;;;;;;;;;;;;;;6153900;23;19912;-89
2023/09/21 02:23:25;;;;;;;;;;;;;;;;;;6154560;23;19904;-89
2023/09/21 02:25:52;;;;;;;;;;;;;;;;;;6156215;22;19975;-88
2023/09/21 02:28:18;;;;;;;;;;;;;;;;;;6152436;23;19915;-88
2023/09/21 02:30:47;;;;;;;;;;;;;;;;;;6153265;23;19995;-87
2023/09/21 02:33:15;;;;;;;;;;;;;;;;;;6153150;23;19908;-88
2023/09/21 02:35:41;;;;;;;;;;;;;;;;;;6154010;23;19942;-88
2023/09/21 02:38:07;;;;;;;;;;;;;;;;;;6154757;23;19904;-88
2023/09/21 02:40:33;;;;;;;;;;;;;;;;;;6151813;23;20073;-89
2023/09/21 02:42:59;;;;;;;;;;;;;;;;;;6154188;23;19959;-89
2023/09/21 02:45:25;;;;;;;;;;;;;;;;;;6154212;23;20278;-89
2023/09/21 02:47:51;;;;;;;;;;;;;;;;;;6154536;23;19966;-88
2023/09/21 02:50:25;;;;;;;;;;;;;;;;;;6154746;23;20141;-89
2023/09/21 02:52:51;;;;;;;;;;;;;;;;;;6154883;23;19932;-87
2023/09/21 02:55:18;;;;;;;;;;;;;;;;;;6153143;23;19904;-88
2023/09/21 02:57:44;;;;;;;;;;;;;;;;;;6154139;23;19908;-90
2023/09/21 03:00:28;;;;;;;;;;;;;;;;;;6179987;23;20508;-89
2023/09/21 03:02:56;;;;;;;;;;;;;;;;;;6153093;23;19912;-89
2023/09/21 03:05:23;;;;;;;;;;;;;;;;;;6153525;23;19988;-89
2023/09/21 03:07:49;;;;;;;;;;;;;;;;;;6153106;23;20525;-89
2023/09/21 03:10:21;;;;;;;;;;;;;;;;;;6153404;23;19908;-89
2023/09/21 03:12:51;;;;;;;;;;;;;;;;;;6177895;23;19936;-89
2023/09/21 03:15:19;;;;;;;;;;;;;;;;;;6154007;23;20318;-89
2023/09/21 03:17:45;;;;;;;;;;;;;;;;;;6153815;23;19904;-89
2023/09/21 03:20:11;;;;;;;;;;;;;;;;;;6155294;23;20349;-90
2023/09/21 03:22:37;;;;;;;;;;;;;;;;;;6180536;23;20331;-89
2023/09/21 03:25:04;;;;;;;;;;;;;;;;;;6155098;23;19939;-89
2023/09/21 03:27:30;;;;;;;;;;;;;;;;;;6156304;23;19919;-89
2023/09/21 03:29:55;;;;;;;;;;;;;;;;;;6154790;23;20302;-89
2023/09/21 03:32:21;;;;;;;;;;;;;;;;;;6154175;23;19909;-89
2023/09/21 03:34:47;;;;;;;;;;;;;;;;;;6180062;23;19904;-90
2023/09/21 03:37:13;;;;;;;;;;;;;;;;;;6179792;23;20709;-89
2023/09/21 03:39:39;;;;;;;;;;;;;;;;;;6154308;23;19912;-89
2023/09/21 03:42:05;;;;;;;;;;;;;;;;;;6153790;23;19951;-89
2023/09/21 03:44:31;;;;;;;;;;;;;;;;;;6154987;23;19940;-89
2023/09/21 03:46:57;;;;;;;;;;;;;;;;;;6154643;23;20531;-94
2023/09/21 03:49:23;;;;;;;;;;;;;;;;;;6157651;23;19910;-92
2023/09/21 03:51:49;;;;;;;;;;;;;;;;;;6157243;23;19908;-92
2023/09/21 03:54:16;;;;;;;;;;;;;;;;;;6157448;23;19935;-93
2023/09/21 03:56:44;;;;;;;;;;;;;;;;;;6156238;23;19943;-92
2023/09/21 03:59:11;;;;;;;;;;;;;;;;;;6154879;23;19919;-93
2023/09/21 04:01:37;;;;;;;;;;;;;;;;;;6156436;23;19978;-93
2023/09/21 04:04:17;;;;;;;;;;;;;;;;;;6158097;23;19911;-94
2023/09/21 04:06:43;;;;;;;;;;;;;;;;;;6156835;23;19963;-94
2023/09/21 04:09:09;;;;;;;;;;;;;;;;;;6157806;23;19912;-90
2023/09/21 04:11:35;;;;;;;;;;;;;;;;;;6156667;23;19932;-93
2023/09/21 04:14:03;;;;;;;;;;;;;;;;;;6153990;23;19908;-89
2023/09/21 04:16:29;;;;;;;;;;;;;;;;;;6156709;23;19909;-93
2023/09/21 04:18:55;;;;;;;;;;;;;;;;;;6157517;23;19915;-93
2023/09/21 04:21:23;;;;;;;;;;;;;;;;;;6157467;23;20535;-94
2023/09/21 04:23:49;;;;;;;;;;;;;;;;;;6155953;23;19986;-90
2023/09/21 04:26:15;;;;;;;;;;;;;;;;;;6158306;23;20116;-92
2023/09/21 04:28:41;;;;;;;;;;;;;;;;;;6153979;23;20393;-89
2023/09/21 04:31:09;;;;;;;;;;;;;;;;;;6155455;23;19947;-89
2023/09/21 04:33:35;;;;;;;;;;;;;;;;;;6153832;23;20045;-89
2023/09/21 04:36:01;;;;;;;;;;;;;;;;;;6155324;23;20435;-89
2023/09/21 04:38:27;;;;;;;;;;;;;;;;;;6153924;23;19924;-90
2023/09/21 04:40:52;;;;;;;;;;;;;;;;;;6153871;23;19908;-89
2023/09/21 04:43:20;;;;;;;;;;;;;;;;;;6153081;23;20287;-89
2023/09/21 04:45:46;;;;;;;;;;;;;;;;;;6153611;23;19912;-89
2023/09/21 04:48:12;;;;;;;;;;;;;;;;;;6154080;23;19944;-89
2023/09/21 04:50:45;;;;;;;;;;;;;;;;;;6153754;23;20436;-89
2023/09/21 04:53:11;;;;;;;;;;;;;;;;;;6152379;23;19946;-89
2023/09/21 04:55:38;;;;;;;;;;;;;;;;;;6153575;23;19904;-87
2023/09/21 04:58:04;;;;;;;;;;;;;;;;;;6151915;23;19971;-89
2023/09/21 05:00:29;;;;;;;;;;;;;;;;;;6154692;23;20335;-89
2023/09/21 05:02:55;;;;;;;;;;;;;;;;;;6154002;23;19912;-94
2023/09/21 05:05:24;;;;;;;;;;;;;;;;;;6154711;23;19931;-90
2023/09/21 05:07:50;;;;;;;;;;;;;;;;;;6155541;23;19924;-93
2023/09/21 05:10:16;;;;;;;;;;;;;;;;;;6154464;23;20002;-92
2023/09/21 05:12:42;;;;;;;;;;;;;;;;;;6152865;23;19905;-91
2023/09/21 05:15:11;;;;;;;;;;;;;;;;;;6152954;23;19931;-93
2023/09/21 05:17:36;;;;;;;;;;;;;;;;;;6179867;23;20133;-90
2023/09/21 05:20:02;;;;;;;;;;;;;;;;;;6153908;23;19955;-92
2023/09/21 05:22:30;;;;;;;;;;;;;;;;;;6154109;23;19912;-91
2023/09/21 05:24:56;;;;;;;;;;;;;;;;;;6155313;23;19926;-93
2023/09/21 05:27:22;;;;;;;;;;;;;;;;;;6157880;23;19912;-92
2023/09/21 05:29:48;;;;;;;;;;;;;;;;;;6153213;23;19908;-92
2023/09/21 05:32:13;;;;;;;;;;;;;;;;;;6153477;23;19934;-93
2023/09/21 05:34:39;;;;;;;;;;;;;;;;;;6153599;23;19952;-94
2023/09/21 05:37:05;;;;;;;;;;;;;;;;;;6153199;23;19958;-89
2023/09/21 05:39:32;;;;;;;;;;;;;;;;;;6152944;23;19908;-88
2023/09/21 05:41:58;;;;;;;;;;;;;;;;;;6153346;23;19912;-89
2023/09/21 05:44:25;;;;;;;;;;;;;;;;;;6154339;23;19911;-89
2023/09/21 05:46:51;;;;;;;;;;;;;;;;;;6155236;23;19956;-89
2023/09/21 05:49:23;;;;;;;;;;;;;;;;;;6153472;23;19936;-89
2023/09/21 05:51:52;;;;;;;;;;;;;;;;;;6155042;23;20255;-89
2023/09/21 05:54:19;;;;;;;;;;;;;;;;;;6154196;23;19909;-88
2023/09/21 05:56:45;;;;;;;;;;;;;;;;;;6154819;23;19939;-88
2023/09/21 05:59:11;;;;;;;;;;;;;;;;;;6154708;23;19936;-89
2023/09/21 06:01:37;;;;;;;;;;;;;;;;;;6154227;23;20238;-88
2023/09/21 06:04:03;;;;;;;;;;;;;;;;;;6154646;23;19904;-89
2023/09/21 06:06:30;;;;;;;;;;;;;;;;;;6154629;23;20318;-89
2023/09/21 06:08:56;;;;;;;;;;;;;;;;;;6155708;23;19971;-92
2023/09/21 06:11:22;;;;;;;;;;;;;;;;;;6158935;23;19919;-92
2023/09/21 06:13:48;;;;;;;;;;;;;;;;;;6156894;23;19987;-91
2023/09/21 06:16:14;;;;;;;;;;;;;;;;;;6159056;23;19979;-93
2023/09/21 06:18:41;;;;;;;;;;;;;;;;;;6157768;23;19931;-92
2023/09/21 06:21:07;;;;;;;;;;;;;;;;;;6158713;23;19940;-93
2023/09/21 06:23:33;;;;;;;;;;;;;;;;;;6157359;23;20220;-93
2023/09/21 06:25:59;;;;;;;;;;;;;;;;;;6158777;23;20444;-94
2023/09/21 06:28:25;;;;;;;;;;;;;;;;;;6159981;23;19920;-90
2023/09/21 06:30:51;;;;;;;;;;;;;;;;;;6157412;23;19915;-93
2023/09/21 06:33:18;;;;;;;;;;;;;;;;;;6184611;23;20326;-94
2023/09/21 06:35:44;;;;;;;;;;;;;;;;;;6158499;23;19908;-92
2023/09/21 06:38:10;;;;;;;;;;;;;;;;;;6158094;23;19928;-92
2023/09/21 06:40:36;;;;;;;;;;;;;;;;;;6156328;23;19912;-93
2023/09/21 06:43:05;;;;;;;;;;;;;;;;;;6158437;23;20298;-93
2023/09/21 06:45:32;;;;;;;;;;;;;;;;;;6158290;23;19905;-92
2023/09/21 06:47:58;;;;;;;;;;;;;;;;;;6157111;23;20760;-89
2023/09/21 06:50:24;;;;;;;;;;;;;;;;;;6153228;23;19923;-89
2023/09/21 06:52:51;;;;;;;;;;;;;;;;;;6181075;23;19943;-89
2023/09/21 06:55:17;;;;;;;;;;;;;;;;;;6154865;23;19911;-89
2023/09/21 06:57:43;;;;;;;;;;;;;;;;;;6154890;23;20303;-90
2023/09/21 07:00:09;;;;;;;;;;;;;;;;;;6154670;23;19939;-89
2023/09/21 07:02:36;;;;;;;;;;;;;;;;;;6181388;23;19912;-89
2023/09/21 07:05:01;;;;;;;;;;;;;;;;;;6181375;23;19908;-89
2023/09/21 07:07:27;;;;;;;;;;;;;;;;;;6153763;23;19910;-89
2023/09/21 07:09:54;;;;;;;;;;;;;;;;;;6182582;23;20390;-89
2023/09/21 07:12:22;;;;;;;;;;;;;;;;;;6181117;23;19916;-89
2023/09/21 07:14:49;;;;;;;;;;;;;;;;;;6153735;23;19915;-89
2023/09/21 07:17:24;;;;;;;;;;;;;;;;;;6155827;23;20115;-92
2023/09/21 07:19:50;;;;;;;;;;;;;;;;;;6182226;23;19908;-92
2023/09/21 07:22:16;;;;;;;;;;;;;;;;;;6155631;23;19936;-91
2023/09/21 07:24:42;;;;;;;;;;;;;;;;;;6155080;23;19905;-91
2023/09/21 07:27:08;;;;;;;;;;;;;;;;;;6156965;23;20326;-92
2023/09/21 07:29:35;;;;;;;;;;;;;;;;;;6154919;23;19908;-91
2023/09/21 07:32:01;;;;;;;;;;;;;;;;;;6154855;23;19912;-92
2023/09/21 07:34:27;;;;;;;;;;;;;;;;;;6156326;23;19908;-91
2023/09/21 07:36:53;;;;;;;;;;;;;;;;;;6155713;23;19979;-91
2023/09/21 07:39:19;;;;;;;;;;;;;;;;;;6156165;23;19924;-91
2023/09/21 07:41:46;;;;;;;;;;;;;;;;;;6181446;23;20003;-92
2023/09/21 07:44:13;;;;;;;;;;;;;;;;;;6154284;23;19904;-92
2023/09/21 07:46:39;;;;;;;;;;;;;;;;;;6155288;23;19908;-92
2023/09/21 07:49:05;;;;;;;;;;;;;;;;;;6155612;23;19983;-91
2023/09/21 07:51:31;;;;;;;;;;;;;;;;;;6155127;23;19910;-92
2023/09/21 07:53:57;;;;;;;;;;;;;;;;;;6155957;23;19950;-92
2023/09/21 07:56:23;;;;;;;;;;;;;;;;;;6155297;23;19955;-93
2023/09/21 07:58:49;;;;;;;;;;;;;;;;;;6153783;23;20406;-89
2023/09/21 08:01:15;;;;;;;;;;;;;;;;;;6180160;23;20242;-88
2023/09/21 08:03:41;;;;;;;;;;;;;;;;;;6153754;23;20341;-89
2023/09/21 08:06:07;;;;;;;;;;;;;;;;;;6154724;23;19908;-88
2023/09/21 08:08:33;;;;;;;;;;;;;;;;;;6153368;23;20282;-88
2023/09/21 08:10:59;;;;;;;;;;;;;;;;;;6154604;23;19916;-88
2023/09/21 08:13:25;;;;;;;;;;;;;;;;;;6153323;23;19908;-88
2023/09/21 08:15:52;;;;;;;;;;;;;;;;;;6153813;23;19908;-89
2023/09/21 08:18:18;;;;;;;;;;;;;;;;;;6155064;23;19908;-90
2023/09/21 08:20:44;;;;;;;;;;;;;;;;;;6153880;23;20243;-89
2023/09/21 08:23:10;;;;;;;;;;;;;;;;;;6154153;23;19919;-90
2023/09/21 08:25:37;;;;;;;;;;;;;;;;;;6153214;23;19959;-88
2023/09/21 08:28:07;;;;;;;;;;;;;;;;;;6155379;23;19926;-89
2023/09/21 08:30:33;;;;;;;;;;;;;;;;;;6179958;23;19911;-89
2023/09/21 08:32:59;;;;;;;;;;;;;;;;;;6153851;23;20317;-89
2023/09/21 08:35:25;;;;;;;;;;;;;;;;;;6154885;23;19991;-89
2023/09/21 08:37:51;;;;;;;;;;;;;;;;;;6154910;23;19936;-89
2023/09/21 08:40:17;;;;;;;;;;;;;;;;;;6154655;23;19990;-89
2023/09/21 08:42:46;;;;;;;;;;;;;;;;;;6154958;23;19912;-89
2023/09/21 08:45:12;;;;;;;;;;;;;;;;;;6179879;23;19975;-90
2023/09/21 08:47:38;;;;;;;;;;;;;;;;;;6153144;23;20312;-90
2023/09/21 08:50:04;;;;;;;;;;;;;;;;;;6153680;23;19998;-89
2023/09/21 08:52:30;;;;;;;;;;;;;;;;;;6153750;23;19979;-90
2023/09/21 08:54:56;;;;;;;;;;;;;;;;;;6141373;23;19923;-90
2023/09/21 08:57:22;;;;;;;;;;;;;;;;;;6152501;23;19908;-89
2023/09/21 08:59:48;;;;;;;;;;;;;;;;;;6152816;23;19959;-89
2023/09/21 09:02:14;;;;;;;;;;;;;;;;;;6153033;23;20228;-89
2023/09/21 09:04:40;;;;;;;;;;;;;;;;;;6154536;23;20360;-89
2023/09/21 09:07:06;;;;;;;;;;;;;;;;;;6152293;23;19967;-91
2023/09/21 09:09:32;;;;;;;;;;;;;;;;;;6154885;23;20323;-91
2023/09/21 09:11:59;;;;;;;;;;;;;;;;;;6154786;23;20004;-91
2023/09/21 09:14:25;;;;;;;;;;;;;;;;;;6154103;23;20409;-92
2023/09/21 09:16:51;;;;;;;;;;;;;;;;;;6156454;23;19919;-90
2023/09/21 09:19:17;;;;;;;;;;;;;;;;;;6156649;23;19927;-91
2023/09/21 09:21:44;;;;;;;;;;;;;;;;;;6156682;23;19916;-91
2023/09/21 09:24:12;;;;;;;;;;;;;;;;;;6156740;23;19908;-91
2023/09/21 09:26:38;;;;;;;;;;;;;;;;;;6157163;23;19939;-91
2023/09/21 09:29:04;;;;;;;;;;;;;;;;;;6158212;23;19920;-91
2023/09/21 09:31:30;;;;;;;;;;;;;;;;;;6157353;23;19915;-91
2023/09/21 09:33:57;;;;;;;;;;;;;;;;;;6156261;23;19919;-91
2023/09/21 09:36:23;;;;;;;;;;;;;;;;;;6157560;23;20315;-91
2023/09/21 09:38:49;;;;;;;;;;;;;;;;;;6181876;23;19966;-91
2023/09/21 09:41:16;;;;;;;;;;;;;;;;;;6157491;23;19931;-91
2023/09/21 09:43:42;;;;;;;;;;;;;;;;;;6156090;23;19905;-91
2023/09/21 09:46:11;;;;;;;;;;;;;;;;;;6183924;23;19916;-91
2023/09/21 09:48:39;;;;;;;;;;;;;;;;;;6156775;23;19931;-91
2023/09/21 09:51:05;;;;;;;;;;;;;;;;;;6157128;23;19915;-91
2023/09/21 09:53:31;;;;;;;;;;;;;;;;;;6156600;23;19904;-91
2023/09/21 09:55:57;;;;;;;;;;;;;;;;;;6156826;23;19905;-91
2023/09/21 09:58:24;;;;;;;;;;;;;;;;;;6156487;23;19928;-91
2023/09/21 10:00:51;;;;;;;;;;;;;;;;;;6154662;23;20370;-91
2023/09/21 10:03:17;;;;;;;;;;;;;;;;;;6156160;23;20282;-91
2023/09/21 10:05:43;;;;;;;;;;;;;;;;;;6155482;23;19976;-91
2023/09/21 10:08:10;;;;;;;;;;;;;;;;;;6156064;23;19912;-91
2023/09/21 10:10:36;;;;;;;;;;;;;;;;;;6156059;23;19995;-91
2023/09/21 10:13:02;;;;;;;;;;;;;;;;;;6154754;23;19904;-91
2023/09/21 10:15:28;;;;;;;;;;;;;;;;;;6182218;23;19908;-91
2023/09/21 10:17:54;;;;;;;;;;;;;;;;;;6156564;23;19911;-91
2023/09/21 10:20:27;;;;;;;;;;;;;;;;;;6155910;23;19904;-91
2023/09/21 10:22:53;;;;;;;;;;;;;;;;;;6157349;23;19908;-91
2023/09/21 10:25:20;;;;;;;;;;;;;;;;;;6152995;23;20010;-91
2023/09/21 10:27:46;;;;;;;;;;;;;;;;;;6158323;23;19917;-91
2023/09/21 10:30:15;;;;;;;;;;;;;;;;;;6154601;23;20253;-91
2023/09/21 10:32:41;;;;;;;;;;;;;;;;;;6156140;23;20014;-91
2023/09/21 10:35:08;;;;;;;;;;;;;;;;;;6155970;23;19908;-91
2023/09/21 10:37:35;;;;;;;;;;;;;;;;;;6181528;23;20520;-92
2023/09/21 10:40:02;;;;;;;;;;;;;;;;;;6156731;23;19958;-92
2023/09/21 10:42:29;;;;;;;;;;;;;;;;;;6156514;23;19912;-91
2023/09/21 10:45:04;;;;;;;;;;;;;;;;;;6156014;23;19914;-91
2023/09/21 10:47:30;;;;;;;;;;;;;;;;;;6155413;23;19909;-92
2023/09/21 10:50:03;;;;;;;;;;;;;;;;;;6156386;23;19904;-92
2023/09/21 10:52:29;;;;;;;;;;;;;;;;;;6157231;23;19919;-92
2023/09/21 10:54:55;;;;;;;;;;;;;;;;;;6156483;23;19940;-92
2023/09/21 10:57:21;;;;;;;;;;;;;;;;;;6156716;23;20339;-92
2023/09/21 10:59:48;;;;;;;;;;;;;;;;;;6156025;23;19911;-92
2023/09/21 11:02:14;;;;;;;;;;;;;;;;;;6155044;23;19971;-92
2023/09/21 11:04:40;;;;;;;;;;;;;;;;;;6155389;23;19908;-93
2023/09/21 11:07:06;;;;;;;;;;;;;;;;;;6156317;23;19908;-92
2023/09/21 11:09:32;;;;;;;;;;;;;;;;;;6155888;23;20243;-91
2023/09/21 11:11:58;;;;;;;;;;;;;;;;;;6156215;23;19912;-92
2023/09/21 11:14:24;;;;;;;;;;;;;;;;;;6180233;23;19947;-91
2023/09/21 11:16:50;;;;;;;;;;;;;;;;;;6183565;23;19908;-91
2023/09/21 11:19:16;;;;;;;;;;;;;;;;;;6155268;23;19911;-92
2023/09/21 11:21:43;;;;;;;;;;;;;;;;;;6155785;23;19934;-92
2023/09/21 11:24:09;;;;;;;;;;;;;;;;;;6154850;23;19955;-92
2023/09/21 11:26:35;;;;;;;;;;;;;;;;;;6181725;23;19912;-92
2023/09/21 11:29:02;;;;;;;;;;;;;;;;;;6157847;23;19921;-89
2023/09/21 11:31:28;;;;;;;;;;;;;;;;;;6155318;23;20015;-89
2023/09/21 11:33:54;;;;;;;;;;;;;;;;;;6154639;23;20005;-89
2023/09/21 11:36:20;;;;;;;;;;;;;;;;;;6180078;23;19912;-89
2023/09/21 11:38:46;;;;;;;;;;;;;;;;;;6155682;23;19908;-90
2023/09/21 11:41:12;;;;;;;;;;;;;;;;;;6155454;23;19983;-89
2023/09/21 11:43:38;;;;;;;;;;;;;;;;;;6155233;23;19956;-89
2023/09/21 11:46:06;;;;;;;;;;;;;;;;;;6155511;23;19905;-89
2023/09/21 11:48:33;;;;;;;;;;;;;;;;;;6156040;23;19919;-90
2023/09/21 11:50:59;;;;;;;;;;;;;;;;;;6155942;23;19958;-90
2023/09/21 11:53:26;;;;;;;;;;;;;;;;;;6154402;23;19916;-90
2023/09/21 11:55:52;;;;;;;;;;;;;;;;;;6156544;23;19935;-90
2023/09/21 11:58:22;;;;;;;;;;;;;;;;;;6154144;23;19908;-89
2023/09/21 12:01:06;;;;;;;;;;;;;;;;;;6154988;23;19924;-89
2023/09/21 12:03:39;;;;;;;;;;;;;;;;;;6155279;23;20208;-90
2023/09/21 12:06:08;;;;;;;;;;;;;;;;;;6152331;23;19912;-89
2023/09/21 12:08:35;;;;;;;;;;;;;;;;;;6152994;23;19908;-89
2023/09/21 12:11:01;;;;;;;;;;;;;;;;;;6153468;23;19908;-88
2023/09/21 12:13:27;;;;;;;;;;;;;;;;;;6153528;23;20346;-89
2023/09/21 12:15:55;;;;;;;;;;;;;;;;;;6154747;23;20480;-89
2023/09/21 12:18:21;;;;;;;;;;;;;;;;;;6154659;23;19908;-89
2023/09/21 12:20:56;;;;;;;;;;;;;;;;;;6154013;23;19955;-89
2023/09/21 12:23:26;;;;;;;;;;;;;;;;;;6179264;23;20372;-89
2023/09/21 12:25:52;;;;;;;;;;;;;;;;;;6155195;23;20323;-89
2023/09/21 12:28:19;;;;;;;;;;;;;;;;;;6182258;22;20263;-90
2023/09/21 12:30:48;;;;;;;;;;;;;;;;;;6153688;23;19909;-89
2023/09/21 12:33:17;;;;;;;;;;;;;;;;;;6155228;23;19940;-89
2023/09/21 12:35:43;;;;;;;;;;;;;;;;;;6154865;23;19908;-89
2023/09/21 12:38:11;;;;;;;;;;;;;;;;;;6155295;23;19911;-90
2023/09/21 12:40:36;;;;;;;;;;;;;;;;;;6154697;23;19912;-90
2023/09/21 12:43:02;;;;;;;;;;;;;;;;;;6155108;23;19909;-89
2023/09/21 12:45:28;;;;;;;;;;;;;;;;;;6155166;23;20314;-89
2023/09/21 12:47:54;;;;;;;;;;;;;;;;;;6153828;23;19909;-89
2023/09/21 12:50:22;;;;;;;;;;;;;;;;;;6156594;23;20311;-90
2023/09/21 12:52:48;;;;;;;;;;;;;;;;;;6156131;23;19904;-89
2023/09/21 12:55:15;;;;;;;;;;;;;;;;;;6155484;23;19959;-90
2023/09/21 12:57:41;;;;;;;;;;;;;;;;;;6155731;23;19940;-89
2023/09/21 13:00:13;;;;;;;;;;;;;;;;;;6155336;23;20269;-89
2023/09/21 13:02:39;;;;;;;;;;;;;;;;;;6182064;23;19908;-89
2023/09/21 13:05:05;;;;;;;;;;;;;;;;;;6156130;23;20793;-89
2023/09/21 13:07:31;;;;;;;;;;;;;;;;;;6155937;23;20309;-90
2023/09/21 13:09:57;;;;;;;;;;;;;;;;;;6156296;23;19915;-90
2023/09/21 13:12:23;;;;;;;;;;;;;;;;;;6157797;23;19912;-90
2023/09/21 13:14:49;;;;;;;;;;;;;;;;;;6157015;23;19904;-90
2023/09/21 13:17:15;;;;;;;;;;;;;;;;;;6157438;23;19908;-91
2023/09/21 13:19:42;;;;;;;;;;;;;;;;;;6156493;23;19955;-90
2023/09/21 13:22:08;;;;;;;;;;;;;;;;;;6157769;23;19908;-90
2023/09/21 13:24:34;;;;;;;;;;;;;;;;;;6157391;23;20035;-90
2023/09/21 13:27:00;;;;;;;;;;;;;;;;;;6156396;23;19944;-90
2023/09/21 13:29:26;;;;;;;;;;;;;;;;;;6157626;23;20386;-90
2023/09/21 13:31:52;;;;;;;;;;;;;;;;;;6182943;23;20408;-90
2023/09/21 13:34:20;;;;;;;;;;;;;;;;;;6183135;23;19912;-90
2023/09/21 13:36:46;;;;;;;;;;;;;;;;;;6157045;23;19904;-90
2023/09/21 13:39:12;;;;;;;;;;;;;;;;;;6156585;23;19939;-90
2023/09/21 13:41:40;;;;;;;;;;;;;;;;;;6156449;23;19947;-91
2023/09/21 13:44:06;;;;;;;;;;;;;;;;;;6156192;23;19908;-91
2023/09/21 13:46:32;;;;;;;;;;;;;;;;;;6156736;23;19992;-91
2023/09/21 13:48:58;;;;;;;;;;;;;;;;;;6159132;23;20319;-91
2023/09/21 13:51:24;;;;;;;;;;;;;;;;;;6156270;23;19904;-91
2023/09/21 13:53:50;;;;;;;;;;;;;;;;;;6156536;23;19919;-90
2023/09/21 13:56:16;;;;;;;;;;;;;;;;;;6153780;23;19904;-91
2023/09/21 13:58:45;;;;;;;;;;;;;;;;;;6154824;23;19920;-91
2023/09/21 14:01:11;;;;;;;;;;;;;;;;;;6155640;23;19908;-92
2023/09/21 14:03:38;;;;;;;;;;;;;;;;;;6156218;23;20254;-93
2023/09/21 14:06:05;;;;;;;;;;;;;;;;;;6153791;23;19908;-91
2023/09/21 14:08:31;;;;;;;;;;;;;;;;;;6155461;23;19962;-92
2023/09/21 14:10:57;;;;;;;;;;;;;;;;;;6154589;23;19908;-92
2023/09/21 14:13:23;;;;;;;;;;;;;;;;;;6155398;23;19991;-92
2023/09/21 14:15:49;;;;;;;;;;;;;;;;;;6154648;23;19940;-91
2023/09/21 14:18:15;;;;;;;;;;;;;;;;;;6156921;23;19908;-90
2023/09/21 14:20:41;;;;;;;;;;;;;;;;;;6156084;23;19908;-90
2023/09/21 14:23:07;;;;;;;;;;;;;;;;;;6181805;23;20330;-90
2023/09/21 14:25:33;;;;;;;;;;;;;;;;;;6153983;23;19904;-90
2023/09/21 14:27:59;;;;;;;;;;;;;;;;;;6157118;22;19916;-89
2023/09/21 14:30:25;;;;;;;;;;;;;;;;;;6154356;23;20358;-89
2023/09/21 14:32:53;;;;;;;;;;;;;;;;;;6155315;23;19908;-89
2023/09/21 14:35:19;;;;;;;;;;;;;;;;;;6154228;23;19916;-89
2023/09/21 14:37:45;;;;;;;;;;;;;;;;;;6155165;23;19912;-89
2023/09/21 14:40:12;;;;;;;;;;;;;;;;;;6154579;23;19912;-90
2023/09/21 14:42:38;;;;;;;;;;;;;;;;;;6155615;23;19912;-90
2023/09/21 14:45:04;;;;;;;;;;;;;;;;;;6155652;23;19904;-89
2023/09/21 14:47:31;;;;;;;;;;;;;;;;;;6181385;23;19915;-89
2023/09/21 14:49:57;;;;;;;;;;;;;;;;;;6154570;23;19962;-89
2023/09/21 14:52:23;;;;;;;;;;;;;;;;;;6155871;23;19970;-89
2023/09/21 14:54:49;;;;;;;;;;;;;;;;;;6154287;23;19959;-89
2023/09/21 14:57:15;;;;;;;;;;;;;;;;;;6182196;23;20031;-89
2023/09/21 14:59:41;;;;;;;;;;;;;;;;;;6154389;23;19908;-89
2023/09/21 15:02:10;;;;;;;;;;;;;;;;;;6154743;23;19946;-90
2023/09/21 15:04:39;;;;;;;;;;;;;;;;;;6154341;23;20561;-89
2023/09/21 15:07:12;;;;;;;;;;;;;;;;;;6156363;23;19983;-89
2023/09/21 15:09:38;;;;;;;;;;;;;;;;;;6154999;23;19935;-88
2023/09/21 15:12:04;;;;;;;;;;;;;;;;;;6156053;23;19908;-89
2023/09/21 15:14:31;;;;;;;;;;;;;;;;;;6153867;23;20314;-89
2023/09/21 15:16:57;;;;;;;;;;;;;;;;;;6156174;23;19908;-90
2023/09/21 15:19:24;;;;;;;;;;;;;;;;;;6153996;23;19987;-89
2023/09/21 15:21:49;;;;;;;;;;;;;;;;;;6179714;23;19926;-90
2023/09/21 15:24:15;;;;;;;;;;;;;;;;;;6179577;23;19916;-89
2023/09/21 15:26:41;;;;;;;;;;;;;;;;;;6155220;23;19995;-89
2023/09/21 15:29:07;;;;;;;;;;;;;;;;;;6155841;23;19916;-91
2023/09/21 15:31:34;;;;;;;;;;;;;;;;;;6155522;23;20429;-92
2023/09/21 15:34:00;;;;;;;;;;;;;;;;;;6154567;23;19908;-91
2023/09/21 15:36:26;;;;;;;;;;;;;;;;;;6155242;23;19912;-91
2023/09/21 15:38:52;;;;;;;;;;;;;;;;;;6155351;23;19904;-90
2023/09/21 15:41:18;;;;;;;;;;;;;;;;;;6155662;23;19915;-91
2023/09/21 15:43:44;;;;;;;;;;;;;;;;;;6154974;23;19912;-91
2023/09/21 15:46:10;;;;;;;;;;;;;;;;;;6155423;23;19912;-91
2023/09/21 15:48:36;;;;;;;;;;;;;;;;;;6154229;23;19916;-92
2023/09/21 15:51:02;;;;;;;;;;;;;;;;;;6154286;23;19927;-91
2023/09/21 15:53:28;;;;;;;;;;;;;;;;;;6154713;23;19917;-91
2023/09/21 15:55:56;;;;;;;;;;;;;;;;;;6154275;23;20366;-92
2023/09/21 15:58:22;;;;;;;;;;;;;;;;;;6180468;23;19919;-92
2023/09/21 16:00:48;;;;;;;;;;;;;;;;;;6155468;23;19936;-92
2023/09/21 16:03:14;;;;;;;;;;;;;;;;;;6155386;23;19912;-93
2023/09/21 16:05:40;;;;;;;;;;;;;;;;;;6181532;23;19908;-92
2023/09/21 16:08:06;;;;;;;;;;;;;;;;;;6153315;23;20294;-92
2023/09/21 16:10:32;;;;;;;;;;;;;;;;;;6154537;23;19909;-92
2023/09/21 16:12:59;;;;;;;;;;;;;;;;;;6152645;23;19914;-91
2023/09/21 16:15:25;;;;;;;;;;;;;;;;;;6154108;23;20366;-92
2023/09/21 16:17:51;;;;;;;;;;;;;;;;;;6153769;23;19975;-90
2023/09/21 16:20:17;;;;;;;;;;;;;;;;;;6154293;23;19939;-88
2023/09/21 16:22:43;;;;;;;;;;;;;;;;;;6153797;23;20002;-89
2023/09/21 16:25:09;;;;;;;;;;;;;;;;;;6150252;23;19908;-88
2023/09/21 16:27:35;;;;;;;;;;;;;;;;;;6153392;23;19983;-89
2023/09/21 16:30:05;;;;;;;;;;;;;;;;;;6156084;23;19963;-88
2023/09/21 16:32:31;;;;;;;;;;;;;;;;;;6154823;23;19937;-87
2023/09/21 16:34:57;;;;;;;;;;;;;;;;;;6154791;23;19908;-89
2023/09/21 16:37:24;;;;;;;;;;;;;;;;;;6154471;23;19908;-90
2023/09/21 16:39:51;;;;;;;;;;;;;;;;;;6157153;23;19928;-90
2023/09/21 16:42:17;;;;;;;;;;;;;;;;;;6155845;23;19918;-90